Time;durP1;ratioP1;P1;durP2;ratioP2;P2;SDS_P1;SDS_P2;PMS_P1;PMS_P2;Temp;Humidity;BMP_temperature;BMP_pressure;BME280_temperature;BME280_humidity;BME280_pressure;Samples;Min_cycle;Max_cycle;Signal;HPM_P1;HPM_P2
2024/01/25 00:00:19;;;;;;;3.53;0.70;;;;;;;8.95;100.00;97918.56;4973911;28;20069;-73
2024/01/25 00:02:44;;;;;;;2.15;0.70;;;;;;;8.91;100.00;97928.53;4994463;28;20113;-71
2024/01/25 00:05:10;;;;;;;0.70;0.50;;;;;;;8.87;100.00;97926.78;4975303;28;20741;-72
2024/01/25 00:07:45;;;;;;;1.48;0.57;;;;;;;8.72;100.00;97920.69;4979914;28;20046;-72
2024/01/25 00:10:10;;;;;;;2.47;0.75;;;;;;;8.65;100.00;97917.66;4975275;28;20488;-71
2024/01/25 00:12:36;;;;;;;1.85;0.63;;;;;;;8.63;100.00;97919.13;4978148;28;20108;-71
2024/01/25 00:15:01;;;;;;;2.03;0.80;;;;;;;8.59;100.00;97908.03;4977061;28;20034;-70
2024/01/25 00:17:27;;;;;;;2.45;0.77;;;;;;;8.58;100.00;97909.16;4976673;28;20048;-71
2024/01/25 00:19:52;;;;;;;3.00;0.80;;;;;;;8.46;100.00;97901.59;4979256;28;20054;-71
2024/01/25 00:22:18;;;;;;;0.82;0.50;;;;;;;8.39;100.00;97901.25;4974782;28;20046;-73
2024/01/25 00:24:43;;;;;;;4.10;1.77;;;;;;;8.29;100.00;97905.13;4979477;28;20049;-73
2024/01/25 00:27:09;;;;;;;1.05;0.60;;;;;;;8.28;100.00;97902.72;4975205;28;20054;-71
2024/01/25 00:29:34;;;;;;;3.97;0.80;;;;;;;8.28;100.00;97897.25;4980007;28;20043;-71
2024/01/25 00:32:00;;;;;;;3.70;0.80;;;;;;;8.40;100.00;97905.59;4979180;28;20797;-72
2024/01/25 00:34:26;;;;;;;1.20;0.70;;;;;;;8.56;100.00;97914.94;4974368;28;20137;-72
2024/01/25 00:36:51;;;;;;;3.58;0.70;;;;;;;8.60;100.00;97923.28;4979477;28;20054;-72
2024/01/25 00:39:17;;;;;;;4.03;0.93;;;;;;;8.60;100.00;97920.53;4975548;28;20069;-72
2024/01/25 00:41:44;;;;;;;7.40;0.77;;;;;;;8.69;100.00;97910.41;4977866;28;20038;-71
2024/01/25 00:44:09;;;;;;;2.10;0.90;;;;;;;8.62;100.00;97910.09;4973033;28;20047;-72
2024/01/25 00:46:35;;;;;;;1.10;0.65;;;;;;;8.74;100.00;97914.91;4979733;28;20054;-71
2024/01/25 00:49:01;;;;;;;1.63;0.77;;;;;;;8.51;100.00;97898.72;4982293;28;20039;-72
2024/01/25 00:51:26;;;;;;;4.03;1.05;;;;;;;8.42;100.00;97898.72;4979290;28;20042;-73
2024/01/25 00:53:52;;;;;;;2.30;0.70;;;;;;;8.54;100.00;97898.06;4982951;28;20050;-73
2024/01/25 00:56:18;;;;;;;1.88;0.70;;;;;;;8.53;100.00;97914.78;4978153;28;20100;-71
2024/01/25 00:58:43;;;;;;;23.02;10.82;;;;;;;8.58;100.00;97909.94;4983388;28;20125;-71
2024/01/25 01:01:10;;;;;;;6.25;2.20;;;;;;;8.67;100.00;97909.13;4977071;28;20073;-72
2024/01/25 01:03:36;;;;;;;1.83;0.90;;;;;;;8.53;100.00;97906.59;4983981;28;20046;-72
2024/01/25 01:06:02;;;;;;;5.93;0.80;;;;;;;8.57;100.00;97913.00;4981193;28;20043;-71
2024/01/25 01:08:27;;;;;;;5.00;0.80;;;;;;;8.61;100.00;97917.50;4982320;28;20051;-73
2024/01/25 01:10:53;;;;;;;1.75;0.50;;;;;;;8.69;100.00;97921.34;4982913;28;20054;-73
2024/01/25 01:13:18;;;;;;;1.45;0.60;;;;;;;8.77;100.00;97919.72;4979768;28;20092;-73
2024/01/25 01:15:43;;;;;;;3.30;0.82;;;;;;;8.40;100.00;97911.88;4983699;28;20052;-72
2024/01/25 01:18:09;;;;;;;3.22;0.93;;;;;;;8.39;100.00;97907.53;5009879;28;20194;-72
2024/01/25 01:20:34;;;;;;;2.53;0.63;;;;;;;8.44;100.00;97906.59;4983312;28;20042;-70
2024/01/25 01:22:59;;;;;;;2.25;0.80;;;;;;;8.42;100.00;97906.13;4983027;28;20042;-72
2024/01/25 01:25:25;;;;;;;3.75;1.10;;;;;;;8.32;100.00;97907.22;4978808;28;20051;-71
2024/01/25 01:27:50;;;;;;;1.33;0.80;;;;;;;8.30;100.00;97906.75;4982093;28;20101;-71
2024/01/25 01:30:16;;;;;;;4.00;0.80;;;;;;;8.24;100.00;97900.63;4978069;28;20038;-71
2024/01/25 01:32:41;;;;;;;3.38;1.23;;;;;;;8.19;100.00;97916.38;4983701;28;20108;-71
2024/01/25 01:35:07;;;;;;;2.92;1.02;;;;;;;8.27;100.00;97914.78;4977566;28;20042;-71
2024/01/25 01:37:32;;;;;;;4.28;1.00;;;;;;;8.40;100.00;97908.34;4983342;28;20045;-71
2024/01/25 01:39:58;;;;;;;6.63;1.77;;;;;;;8.33;100.00;97902.56;4983216;28;20104;-70
2024/01/25 01:42:24;;;;;;;3.67;1.08;;;;;;;8.16;100.00;97901.44;4979803;28;20046;-71
2024/01/25 01:44:52;;;;;;;6.63;1.27;;;;;;;8.14;100.00;97900.97;4994348;28;20046;-72
2024/01/25 01:47:18;;;;;;;3.15;1.02;;;;;;;8.10;100.00;97901.91;4994530;28;20039;-71
2024/01/25 01:49:44;;;;;;;10.98;1.40;;;;;;;8.12;100.00;97903.22;4989409;28;20050;-72
2024/01/25 01:52:10;;;;;;;4.03;1.13;;;;;;;8.19;100.00;97900.00;4978031;28;20701;-70
2024/01/25 01:54:36;;;;;;;5.90;1.00;;;;;;;8.11;100.00;97904.34;4987999;28;20128;-73
2024/01/25 01:57:03;;;;;;;3.33;1.02;;;;;;;7.98;100.00;97897.91;4997664;28;20035;-72
2024/01/25 01:59:29;;;;;;;4.28;1.10;;;;;;;8.08;100.00;97904.97;4998067;28;20046;-71
2024/01/25 02:01:54;;;;;;;2.53;1.02;;;;;;;8.13;100.00;97904.81;4986512;28;20050;-72
2024/01/25 02:04:20;;;;;;;3.25;1.08;;;;;;;8.21;100.00;97901.28;4982739;28;20073;-70
2024/01/25 02:06:45;;;;;;;5.45;1.13;;;;;;;8.23;100.00;97900.97;4983654;28;20080;-71
2024/01/25 02:09:11;;;;;;;3.92;1.15;;;;;;;8.27;100.00;97906.59;4977597;28;20405;-71
2024/01/25 02:11:37;;;;;;;3.40;0.98;;;;;;;8.27;100.00;97903.88;4980294;28;20453;-72
2024/01/25 02:14:02;;;;;;;3.15;0.90;;;;;;;8.15;100.00;97894.38;4978882;28;20030;-73
2024/01/25 02:16:28;;;;;;;7.95;1.08;;;;;;;8.10;100.00;97891.00;4980704;28;20046;-72
2024/01/25 02:18:57;;;;;;;5.25;1.33;;;;;;;8.16;100.00;97890.53;4982039;28;20421;-72
2024/01/25 02:21:23;;;;;;;2.95;1.15;;;;;;;8.16;100.00;97897.94;4980681;28;20046;-72
2024/01/25 02:23:50;;;;;;;2.78;1.30;;;;;;;8.04;100.00;97899.34;4986001;28;20114;-73
2024/01/25 02:26:15;;;;;;;5.13;1.38;;;;;;;7.99;100.00;97888.59;4977803;28;20046;-72
2024/01/25 02:28:40;;;;;;;4.05;1.10;;;;;;;8.04;100.00;97895.81;4982775;28;20127;-72
2024/01/25 02:31:06;;;;;;;3.63;1.20;;;;;;;7.99;100.00;97896.78;4977981;28;20041;-71
2024/01/25 02:33:31;;;;;;;4.03;1.00;;;;;;;8.04;100.00;97888.44;4981685;28;20042;-71
2024/01/25 02:35:56;;;;;;;3.92;0.82;;;;;;;8.07;100.00;97886.19;4981007;28;20057;-72
2024/01/25 02:38:22;;;;;;;2.28;1.10;;;;;;;7.98;100.00;97889.72;4978286;28;20861;-72
2024/01/25 02:40:47;;;;;;;3.03;1.00;;;;;;;7.93;100.00;97883.63;4978599;28;20416;-72
2024/01/25 02:43:12;;;;;;;6.28;1.88;;;;;;;7.87;100.00;97888.44;4976786;28;20485;-70
2024/01/25 02:45:38;;;;;;;5.22;1.40;;;;;;;7.84;100.00;97878.97;4980473;28;20412;-72
2024/01/25 02:48:04;;;;;;;5.85;1.40;;;;;;;7.87;100.00;97893.06;4977118;28;20418;-73
2024/01/25 02:50:29;;;;;;;6.43;1.48;;;;;;;8.01;100.00;97912.81;4982440;28;20066;-72
2024/01/25 02:52:54;;;;;;;6.32;1.15;;;;;;;7.92;100.00;97906.56;4981956;28;20046;-70
2024/01/25 02:55:20;;;;;;;5.25;1.30;;;;;;;7.86;100.00;97895.00;4975699;28;20196;-70
2024/01/25 02:57:46;;;;;;;5.75;1.27;;;;;;;7.88;100.00;97884.56;4988478;28;20046;-71
2024/01/25 03:00:12;;;;;;;6.13;1.23;;;;;;;7.90;100.00;97879.59;4975357;28;20042;-71
2024/01/25 03:02:37;;;;;;;5.28;1.08;;;;;;;7.83;100.00;97887.47;4980310;28;20408;-70
2024/01/25 03:05:03;;;;;;;7.00;1.40;;;;;;;7.98;100.00;97883.47;4976581;28;20049;-73
2024/01/25 03:07:28;;;;;;;7.97;1.38;;;;;;;7.89;100.00;97888.91;4980304;28;20795;-71
2024/01/25 03:09:54;;;;;;;8.30;1.45;;;;;;;7.86;100.00;97895.00;4979411;28;20452;-71
2024/01/25 03:12:19;;;;;;;4.15;1.20;;;;;;;7.87;100.00;97873.97;4975875;28;20042;-72
2024/01/25 03:14:44;;;;;;;7.78;1.67;;;;;;;7.79;100.00;97868.19;4980375;28;20078;-72
2024/01/25 03:17:12;;;;;;;5.10;1.33;;;;;;;7.82;100.00;97881.22;4977152;28;20046;-71
2024/01/25 03:19:37;;;;;;;7.72;1.50;;;;;;;7.81;100.00;97889.69;4981686;28;20046;-72
2024/01/25 03:22:03;;;;;;;5.28;1.70;;;;;;;7.98;100.00;97889.72;4976698;28;20041;-72
2024/01/25 03:24:28;;;;;;;8.23;1.33;;;;;;;8.06;100.00;97895.50;4980756;28;20050;-70
2024/01/25 03:26:54;;;;;;;7.05;1.50;;;;;;;8.02;100.00;97895.34;4980190;28;20050;-70
2024/01/25 03:29:19;;;;;;;4.55;1.40;;;;;;;8.08;100.00;97902.22;4975677;28;20038;-71
2024/01/25 03:31:45;;;;;;;2.67;1.23;;;;;;;8.10;100.00;97901.91;4980997;28;20054;-72
2024/01/25 03:34:10;;;;;;;5.53;1.20;;;;;;;8.10;100.00;97893.72;4976957;28;20424;-72
2024/01/25 03:36:36;;;;;;;6.05;1.30;;;;;;;8.07;100.00;97886.19;4980425;28;20636;-72
2024/01/25 03:39:02;;;;;;;4.28;1.30;;;;;;;7.97;100.00;97887.31;4979270;28;20077;-72
2024/01/25 03:41:29;;;;;;;6.80;1.60;;;;;;;7.89;100.00;97882.69;4979752;28;20078;-71
2024/01/25 03:43:54;;;;;;;6.35;2.20;;;;;;;7.79;100.00;97876.38;4980156;28;20038;-71
2024/01/25 03:46:20;;;;;;;4.65;1.35;;;;;;;7.85;100.00;97883.31;4975543;28;20053;-71
2024/01/25 03:48:45;;;;;;;5.20;1.45;;;;;;;7.84;100.00;97884.41;4980401;28;20449;-71
2024/01/25 03:51:11;;;;;;;6.25;1.52;;;;;;;7.94;100.00;97887.94;4976388;28;20073;-72
2024/01/25 03:53:36;;;;;;;6.85;1.95;;;;;;;7.93;100.00;97897.28;4980537;28;20134;-71
2024/01/25 03:56:02;;;;;;;3.15;1.20;;;;;;;7.94;100.00;97886.03;4976511;28;20101;-71
2024/01/25 03:58:28;;;;;;;5.05;1.55;;;;;;;7.98;100.00;97888.94;4987898;28;20050;-70
2024/01/25 04:00:54;;;;;;;4.35;1.40;;;;;;;7.98;100.00;97889.72;4991165;28;20160;-71
2024/01/25 04:03:19;;;;;;;7.43;1.40;;;;;;;7.97;100.00;97890.84;4985453;28;20038;-71
2024/01/25 04:05:44;;;;;;;5.93;1.40;;;;;;;8.06;100.00;97888.13;4985965;28;20064;-70
2024/01/25 04:08:10;;;;;;;4.93;1.30;;;;;;;8.03;100.00;97886.84;4976881;28;20049;-71
2024/01/25 04:10:35;;;;;;;6.60;1.63;;;;;;;8.00;100.00;97884.75;4980244;28;20054;-69
2024/01/25 04:13:02;;;;;;;4.90;1.33;;;;;;;7.94;100.00;97879.75;4977609;28;20039;-69
2024/01/25 04:15:27;;;;;;;3.20;1.25;;;;;;;7.87;100.00;97883.00;4978540;28;20452;-70
2024/01/25 04:17:53;;;;;;;2.45;1.33;;;;;;;7.86;100.00;97889.56;4980191;28;20054;-70
2024/01/25 04:20:19;;;;;;;3.42;1.80;;;;;;;7.86;100.00;97881.38;4974025;28;20046;-70
2024/01/25 04:22:44;;;;;;;4.97;1.70;;;;;;;7.83;100.00;97890.19;4979535;28;20042;-70
2024/01/25 04:25:10;;;;;;;6.60;1.67;;;;;;;7.75;100.00;97894.50;4974614;28;20116;-71
2024/01/25 04:27:38;;;;;;;9.88;1.52;;;;;;;7.75;100.00;97893.72;4982466;28;20147;-70
2024/01/25 04:30:05;;;;;;;6.57;2.00;;;;;;;7.85;100.00;97893.41;4976278;28;20054;-71
2024/01/25 04:32:30;;;;;;;4.35;1.40;;;;;;;7.76;100.00;97895.31;4979849;28;20479;-70
2024/01/25 04:34:56;;;;;;;3.55;1.30;;;;;;;7.71;100.00;97900.94;4979746;28;20047;-70
2024/01/25 04:37:21;;;;;;;6.20;1.40;;;;;;;7.65;100.00;97901.09;4975141;28;20502;-70
2024/01/25 04:39:46;;;;;;;3.80;1.30;;;;;;;7.75;100.00;97904.63;4979364;28;20141;-70
2024/01/25 04:42:12;;;;;;;4.43;1.50;;;;;;;7.82;100.00;97902.22;4976084;28;20121;-70
2024/01/25 04:44:37;;;;;;;6.78;2.20;;;;;;;7.86;100.00;97900.47;4980142;28;20081;-69
2024/01/25 04:47:03;;;;;;;6.38;1.30;;;;;;;7.84;100.00;97894.53;4976052;28;20090;-69
2024/01/25 04:49:28;;;;;;;6.10;1.35;;;;;;;7.92;100.00;97888.25;4979395;28;20133;-70
2024/01/25 04:51:53;;;;;;;3.72;1.42;;;;;;;7.88;100.00;97914.59;4982851;28;20519;-71
2024/01/25 04:54:19;;;;;;;5.30;1.98;;;;;;;7.90;100.00;97914.25;4978817;28;20042;-70
2024/01/25 04:56:44;;;;;;;4.55;1.30;;;;;;;8.03;100.00;97913.31;4981650;28;20049;-70
2024/01/25 04:59:10;;;;;;;6.28;2.30;;;;;;;7.99;100.00;97912.34;4975367;28;20066;-71
2024/01/25 05:01:36;;;;;;;2.75;1.50;;;;;;;8.06;100.00;97909.94;4979709;28;20474;-70
2024/01/25 05:04:01;;;;;;;4.68;1.20;;;;;;;7.97;100.00;97914.59;4977780;28;20136;-71
2024/01/25 05:06:26;;;;;;;3.60;1.35;;;;;;;8.02;100.00;97915.25;4976610;28;20054;-70
2024/01/25 05:08:52;;;;;;;3.88;1.50;;;;;;;8.16;100.00;97922.50;4979386;28;20046;-69
2024/01/25 05:11:17;;;;;;;4.78;2.00;;;;;;;8.16;100.00;97923.28;4974441;28;20519;-69
2024/01/25 05:13:43;;;;;;;3.47;1.40;;;;;;;8.03;100.00;97921.50;4979729;28;20042;-69
2024/01/25 05:16:08;;;;;;;7.30;2.20;;;;;;;8.03;100.00;97922.31;4975778;28;20050;-69
2024/01/25 05:18:33;;;;;;;4.10;1.90;;;;;;;7.99;100.00;97929.50;4979107;28;20193;-69
2024/01/25 05:20:59;;;;;;;4.63;2.08;;;;;;;7.95;100.00;97928.56;4986298;28;20496;-70
2024/01/25 05:23:24;;;;;;;6.22;2.30;;;;;;;7.94;100.00;97926.97;4974402;28;20046;-70
2024/01/25 05:25:49;;;;;;;5.65;2.65;;;;;;;7.95;100.00;97934.00;4980540;28;20137;-70
2024/01/25 05:28:15;;;;;;;3.53;2.40;;;;;;;7.84;100.00;97941.69;4966083;28;20118;-69
2024/01/25 05:30:40;;;;;;;5.78;2.80;;;;;;;7.89;100.00;97942.69;4980112;28;20039;-70
2024/01/25 05:33:06;;;;;;;4.70;2.83;;;;;;;7.89;100.00;97939.97;4978214;28;20050;-70
2024/01/25 05:35:34;;;;;;;6.40;2.90;;;;;;;7.88;100.00;97936.41;4984518;28;20064;-68
2024/01/25 05:37:59;;;;;;;6.30;2.92;;;;;;;7.91;100.00;97948.63;4983447;28;20057;-70
2024/01/25 05:40:25;;;;;;;7.30;3.00;;;;;;;7.90;100.00;97950.53;4979581;28;20050;-71
2024/01/25 05:42:50;;;;;;;6.13;2.83;;;;;;;7.94;100.00;97942.50;4986081;28;20448;-70
2024/01/25 05:45:16;;;;;;;7.75;3.00;;;;;;;7.87;100.00;97953.91;4980570;28;20062;-70
2024/01/25 05:47:41;;;;;;;10.50;3.05;;;;;;;7.81;100.00;97946.97;4985845;28;20077;-71
2024/01/25 05:50:07;;;;;;;7.05;2.45;;;;;;;7.73;100.00;97945.84;4977752;28;20374;-69
2024/01/25 05:52:33;;;;;;;9.25;2.80;;;;;;;7.83;100.00;97950.19;4984388;28;20228;-70
2024/01/25 05:54:59;;;;;;;5.60;2.47;;;;;;;7.69;100.00;97950.34;4985970;28;20054;-70
2024/01/25 05:57:24;;;;;;;9.07;2.20;;;;;;;7.73;100.00;97945.84;4979338;28;20073;-71
2024/01/25 05:59:49;;;;;;;10.40;2.88;;;;;;;7.78;100.00;97950.38;4981057;28;20042;-71
2024/01/25 06:02:15;;;;;;;9.68;3.05;;;;;;;7.71;100.00;97942.63;4977854;28;20042;-71
2024/01/25 06:04:40;;;;;;;15.45;3.70;;;;;;;7.57;100.00;97950.94;4983579;28;20050;-72
2024/01/25 06:07:06;;;;;;;9.77;3.80;;;;;;;7.55;100.00;97950.44;4986051;28;20050;-70
2024/01/25 06:09:31;;;;;;;8.70;3.25;;;;;;;7.47;100.00;97956.66;4995703;28;20042;-71
2024/01/25 06:11:57;;;;;;;15.02;4.13;;;;;;;7.44;100.00;97954.59;4995859;28;20042;-70
2024/01/25 06:14:22;;;;;;;10.05;2.53;;;;;;;7.30;100.00;97957.41;4992575;28;20371;-71
2024/01/25 06:16:48;;;;;;;7.68;3.17;;;;;;;7.26;100.00;97957.25;4987799;28;20124;-70
2024/01/25 06:19:13;;;;;;;9.43;2.72;;;;;;;7.22;100.00;97959.00;4981790;28;20734;-72
2024/01/25 06:21:39;;;;;;;10.65;3.00;;;;;;;7.24;100.00;97959.47;4984865;28;20081;-71
2024/01/25 06:24:05;;;;;;;8.65;2.78;;;;;;;7.40;100.00;97969.94;4985091;28;20054;-70
2024/01/25 06:26:30;;;;;;;12.25;3.20;;;;;;;7.28;100.00;97968.63;4987573;28;20497;-72
2024/01/25 06:28:59;;;;;;;9.88;3.97;;;;;;;7.24;100.00;97973.09;4984147;28;20051;-72
2024/01/25 06:31:25;;;;;;;10.07;2.90;;;;;;;7.28;100.00;97978.72;4978486;28;20401;-70
2024/01/25 06:33:52;;;;;;;8.25;2.60;;;;;;;7.28;100.00;97974.06;4985879;28;20138;-70
2024/01/25 06:36:21;;;;;;;10.05;2.67;;;;;;;7.33;100.00;97969.59;4975361;28;20502;-70
2024/01/25 06:38:47;;;;;;;5.50;2.85;;;;;;;7.32;100.00;97971.53;4982811;28;20085;-72
2024/01/25 06:41:13;;;;;;;10.60;3.33;;;;;;;7.38;100.00;97981.19;4975784;28;20046;-72
2024/01/25 06:43:40;;;;;;;13.70;3.30;;;;;;;7.44;100.00;97981.84;4982339;28;20050;-70
2024/01/25 06:46:06;;;;;;;11.73;3.38;;;;;;;7.40;100.00;97992.56;4978014;28;20492;-71
2024/01/25 06:48:32;;;;;;;9.65;2.78;;;;;;;7.40;100.00;97994.47;4981854;28;20050;-72
2024/01/25 06:50:57;;;;;;;7.95;2.60;;;;;;;7.43;100.00;97993.84;4981901;28;20436;-71
2024/01/25 06:53:22;;;;;;;6.60;2.40;;;;;;;7.50;100.00;98002.38;4977078;28;20046;-71
2024/01/25 06:55:48;;;;;;;9.85;2.33;;;;;;;7.15;100.00;98004.13;4983110;28;20050;-72
2024/01/25 06:58:13;;;;;;;6.00;1.98;;;;;;;6.93;100.00;98007.69;4976229;28;20050;-72
2024/01/25 07:00:41;;;;;;;9.10;2.30;;;;;;;6.98;100.00;98002.91;4980581;28;20049;-71
2024/01/25 07:03:07;;;;;;;7.97;1.98;;;;;;;7.06;100.00;98009.56;4978687;28;20141;-71
2024/01/25 07:05:33;;;;;;;7.88;2.25;;;;;;;7.05;100.00;98008.72;4984477;28;20054;-71
2024/01/25 07:07:59;;;;;;;7.25;2.42;;;;;;;7.24;100.00;98010.47;4983455;28;20124;-71
2024/01/25 07:10:24;;;;;;;5.03;2.00;;;;;;;7.20;100.00;98013.00;4976925;28;20054;-71
2024/01/25 07:12:50;;;;;;;7.30;2.50;;;;;;;7.16;100.00;98005.75;4969539;28;20070;-71
2024/01/25 07:15:16;;;;;;;9.07;3.08;;;;;;;7.09;100.00;98008.91;4977199;28;20034;-71
2024/01/25 07:17:42;;;;;;;13.45;7.03;;;;;;;7.04;100.00;98009.84;4980992;28;20133;-72
2024/01/25 07:20:08;;;;;;;17.40;9.70;;;;;;;7.36;100.00;98012.59;4976768;28;20152;-71
2024/01/25 07:22:33;;;;;;;49.17;30.50;;;;;;;7.37;100.00;98019.66;4994898;28;20151;-72
2024/01/25 07:24:58;;;;;;;27.02;16.58;;;;;;;7.42;100.00;98011.34;4979725;28;20045;-71
2024/01/25 07:27:24;;;;;;;20.33;8.57;;;;;;;7.47;100.00;98019.38;4976269;28;20134;-70
2024/01/25 07:29:49;;;;;;;18.58;9.05;;;;;;;7.36;100.00;98018.03;4979018;28;20042;-71
2024/01/25 07:32:14;;;;;;;12.85;4.82;;;;;;;7.47;100.00;98022.91;4974881;28;20057;-71
2024/01/25 07:34:40;;;;;;;15.00;7.90;;;;;;;7.50;100.00;98026.91;4979656;28;20129;-71
2024/01/25 07:37:05;;;;;;;17.50;9.52;;;;;;;7.55;100.00;98023.28;4975161;28;20042;-72
2024/01/25 07:39:31;;;;;;;14.20;9.02;;;;;;;7.19;100.00;98030.44;4979596;28;20042;-71
2024/01/25 07:41:56;;;;;;;18.33;8.27;;;;;;;7.00;100.00;98027.91;4981201;28;20224;-71
2024/01/25 07:44:21;;;;;;;14.98;8.50;;;;;;;6.93;100.00;98030.28;4975780;28;20603;-71
2024/01/25 07:46:47;;;;;;;11.77;4.97;;;;;;;6.81;100.00;98030.06;4981716;28;20047;-70
2024/01/25 07:49:12;;;;;;;13.73;6.28;;;;;;;6.91;100.00;98043.41;4975878;28;20133;-69
2024/01/25 07:51:37;;;;;;;17.55;10.07;;;;;;;6.95;100.00;98030.78;4979322;28;20057;-71
2024/01/25 07:54:03;;;;;;;16.70;7.28;;;;;;;6.97;100.00;98036.72;4976289;28;20138;-71
2024/01/25 07:56:29;;;;;;;26.63;11.90;;;;;;;7.02;100.00;98038.50;4997078;23;20335;-72
2024/01/25 07:58:55;;;;;;;32.88;6.85;;;;;;;7.11;100.00;98050.25;5001206;28;20045;-71
2024/01/25 08:01:21;;;;;;;15.40;5.40;;;;;;;7.18;100.00;98044.38;4993772;28;20992;-72
2024/01/25 08:03:47;;;;;;;28.45;17.42;;;;;;;7.11;100.00;98042.09;4999525;28;20046;-70
2024/01/25 08:06:12;;;;;;;36.47;20.67;;;;;;;7.08;100.00;98046.25;5009065;28;20467;-71
2024/01/25 08:08:38;;;;;;;25.02;12.20;;;;;;;6.99;100.00;98056.28;5000197;28;20057;-71
2024/01/25 08:11:06;;;;;;;20.83;9.20;;;;;;;6.95;100.00;98054.47;4993805;28;20112;-71
2024/01/25 08:13:32;;;;;;;25.23;9.05;;;;;;;6.93;100.00;98054.00;4999419;28;20069;-69
2024/01/25 08:15:57;;;;;;;20.33;8.10;;;;;;;6.92;100.00;98057.84;5007013;28;20448;-72
2024/01/25 08:18:23;;;;;;;18.33;9.00;;;;;;;6.88;100.00;98063.91;4999143;28;20099;-73
2024/01/25 08:20:50;;;;;;;18.55;10.20;;;;;;;6.76;100.00;98055.47;5010667;28;20104;-73
2024/01/25 08:23:16;;;;;;;24.75;12.70;;;;;;;6.66;100.00;98063.88;4987056;28;20097;-73
2024/01/25 08:25:41;;;;;;;18.80;9.23;;;;;;;6.65;100.00;98063.06;5000264;28;20494;-72
2024/01/25 08:28:07;;;;;;;19.15;10.18;;;;;;;6.67;100.00;98066.28;4992439;28;20125;-72
2024/01/25 08:30:33;;;;;;;23.70;13.63;;;;;;;6.67;100.00;98063.56;5012870;28;20052;-71
2024/01/25 08:32:58;;;;;;;17.10;10.13;;;;;;;6.75;100.00;98062.03;5000924;28;20065;-71
2024/01/25 08:35:24;;;;;;;13.45;5.97;;;;;;;7.19;100.00;98057.69;5009896;28;20038;-71
2024/01/25 08:37:50;;;;;;;19.40;6.90;;;;;;;7.33;100.00;98054.91;4999007;28;20073;-71
2024/01/25 08:40:16;;;;;;;10.38;3.75;;;;;;;7.24;100.00;98052.13;4994214;28;20029;-72
2024/01/25 08:42:42;;;;;;;10.88;4.53;;;;;;;7.21;100.00;98049.22;4998948;28;20042;-71
2024/01/25 08:45:08;;;;;;;13.10;4.10;;;;;;;7.21;100.00;98050.03;4991605;28;20046;-71
2024/01/25 08:47:37;;;;;;;8.65;3.80;;;;;;;7.26;100.00;98057.28;4997472;28;20046;-71
2024/01/25 08:50:03;;;;;;;8.45;3.72;;;;;;;7.40;100.00;98057.16;4993828;28;20037;-71
2024/01/25 08:52:29;;;;;;;15.15;4.32;;;;;;;7.62;100.00;98064.53;5004235;28;20435;-70
2024/01/25 08:54:54;;;;;;;12.68;4.05;;;;;;;7.73;100.00;98051.41;5001387;28;20042;-71
2024/01/25 08:57:20;;;;;;;12.15;3.72;;;;;;;7.74;100.00;98059.28;5001584;28;31052;-71
2024/01/25 08:59:45;;;;;;;10.95;4.40;;;;;;;7.77;100.00;98060.56;4998868;28;20049;-71
2024/01/25 09:02:11;;;;;;;11.40;3.10;;;;;;;7.89;100.00;98049.88;4993167;28;20081;-72
2024/01/25 09:04:37;;;;;;;8.68;3.60;;;;;;;8.10;100.00;98047.34;4995794;28;20399;-72
2024/01/25 09:07:02;;;;;;;15.77;3.53;;;;;;;8.13;100.00;98048.66;4995789;28;20096;-74
2024/01/25 09:09:28;;;;;;;9.57;3.33;;;;;;;8.20;100.00;98051.72;5000566;28;20081;-72
2024/01/25 09:11:53;;;;;;;19.23;5.25;;;;;;;8.29;100.00;98058.00;5004637;28;20149;-72
2024/01/25 09:14:19;;;;;;;26.52;12.07;;;;;;;8.26;100.00;98058.63;4997625;28;20146;-72
2024/01/25 09:16:45;;;;;;;32.90;17.98;;;;;;;8.24;100.00;98066.31;5002065;28;20049;-71
2024/01/25 09:19:10;;;;;;;33.83;13.43;;;;;;;8.18;100.00;98068.41;4997179;28;20045;-72
2024/01/25 09:21:39;;;;;;;27.67;8.45;;;;;;;7.95;100.00;98078.59;5009417;28;20136;-71
2024/01/25 09:24:05;;;;;;;27.33;8.05;;;;;;;7.83;100.00;98072.94;4998377;28;20046;-71
2024/01/25 09:26:30;;;;;;;14.98;4.80;;;;;;;7.78;100.00;98078.56;5002304;28;20103;-72
2024/01/25 09:28:56;;;;;;;18.80;6.07;;;;;;;7.63;100.00;98074.28;5002245;28;20148;-72
2024/01/25 09:31:21;;;;;;;19.50;7.60;;;;;;;7.76;100.00;98076.13;5004666;28;20930;-73
2024/01/25 09:33:46;;;;;;;28.30;7.65;;;;;;;7.72;100.00;98075.13;5002158;28;20504;-72
2024/01/25 09:36:12;;;;;;;22.73;8.32;;;;;;;7.65;100.00;98078.34;5004734;28;20468;-72
2024/01/25 09:38:37;;;;;;;37.15;13.88;;;;;;;7.82;100.00;98085.78;5001602;28;20376;-72
2024/01/25 09:41:03;;;;;;;49.78;15.52;;;;;;;7.94;100.00;98082.47;4996779;28;20042;-71
2024/01/25 09:43:28;;;;;;;29.90;10.10;;;;;;;8.01;100.00;98088.28;5000180;28;20076;-72
2024/01/25 09:45:56;;;;;;;26.67;7.43;;;;;;;8.07;100.00;98083.47;5001412;28;20145;-72
2024/01/25 09:48:22;;;;;;;22.20;7.85;;;;;;;8.07;100.00;98090.84;4997232;28;20421;-70
2024/01/25 09:50:48;;;;;;;13.20;5.07;;;;;;;8.12;100.00;98087.97;5000342;28;20041;-71
2024/01/25 09:53:20;;;;;;;12.73;5.80;;;;;;;8.07;100.00;98090.84;4996039;28;20045;-71
2024/01/25 09:55:54;;;;;;;26.17;8.60;;;;;;;8.09;100.00;98089.41;5000199;28;20140;-72
2024/01/25 09:58:20;;;;;;;11.38;5.00;;;;;;;8.12;100.00;98099.69;4995579;28;20042;-72
2024/01/25 10:00:45;;;;;;;18.77;6.47;;;;;;;8.25;100.00;98095.25;5001925;28;20052;-72
2024/01/25 10:03:11;;;;;;;13.98;5.35;;;;;;;8.27;100.00;98094.94;4995449;28;20077;-72
2024/01/25 10:05:36;;;;;;;31.27;8.38;;;;;;;8.18;100.00;98087.50;5001027;28;20046;-72
2024/01/25 10:08:01;;;;;;;8.85;3.90;;;;;;;8.13;100.00;98082.19;4999750;28;20037;-71
2024/01/25 10:10:32;;;;;;;22.27;6.57;;;;;;;8.02;100.00;98084.41;4998148;28;20046;-71
2024/01/25 10:12:57;;;;;;;18.88;6.22;;;;;;;8.01;100.00;98091.00;5000997;28;20151;-72
2024/01/25 10:15:23;;;;;;;10.68;4.78;;;;;;;7.98;100.00;98090.81;4996577;28;20141;-72
2024/01/25 10:17:49;;;;;;;29.27;6.43;;;;;;;7.95;100.00;98081.31;5000854;28;20141;-71
2024/01/25 10:20:15;;;;;;;9.02;3.33;;;;;;;8.13;100.00;98090.38;4995942;28;20060;-72
2024/01/25 10:22:42;;;;;;;6.35;2.72;;;;;;;8.07;100.00;98088.94;5001402;28;20100;-71
2024/01/25 10:25:14;;;;;;;6.82;2.58;;;;;;;7.97;100.00;98081.81;4995187;28;20100;-71
2024/01/25 10:27:40;;;;;;;4.25;2.17;;;;;;;8.12;100.00;98083.31;5000724;28;20401;-71
2024/01/25 10:30:07;;;;;;;4.53;2.33;;;;;;;8.13;100.00;98079.47;4991818;28;20050;-71
2024/01/25 10:32:33;;;;;;;19.42;5.80;;;;;;;8.23;100.00;98075.66;4999186;28;20141;-72
2024/01/25 10:35:01;;;;;;;19.08;4.55;;;;;;;8.18;100.00;98068.41;4999376;28;20407;-72
2024/01/25 10:37:28;;;;;;;5.13;2.47;;;;;;;8.15;100.00;98066.28;4998643;28;20134;-72
2024/01/25 10:39:55;;;;;;;16.65;5.57;;;;;;;8.25;100.00;98067.94;5000639;28;20111;-72
2024/01/25 10:42:21;;;;;;;9.57;2.72;;;;;;;8.31;100.00;98054.94;4995037;28;20619;-72
2024/01/25 10:44:46;;;;;;;12.15;4.20;;;;;;;8.35;100.00;98053.97;5000579;28;20145;-72
2024/01/25 10:47:12;;;;;;;14.60;3.95;;;;;;;8.39;100.00;98049.50;4995813;28;20597;-71
2024/01/25 10:49:38;;;;;;;5.63;1.80;;;;;;;8.37;100.00;98046.28;4998934;28;20045;-71
2024/01/25 10:52:05;;;;;;;9.13;1.98;;;;;;;8.47;100.00;98044.41;4995722;28;20046;-70
2024/01/25 10:54:31;;;;;;;9.70;2.38;;;;;;;8.46;100.00;98032.66;5015958;28;20070;-71
2024/01/25 10:56:58;;;;;;;7.40;1.90;;;;;;;8.50;100.00;98036.38;4998710;28;20084;-72
2024/01/25 10:59:25;;;;;;;7.75;2.25;;;;;;;8.45;100.00;98028.34;4995689;28;20073;-72
2024/01/25 11:01:50;;;;;;;8.38;2.22;;;;;;;8.40;100.00;98023.78;5000655;28;20053;-72
2024/01/25 11:04:17;;;;;;;10.40;2.97;;;;;;;8.35;100.00;98029.41;4977612;28;20042;-72
2024/01/25 11:06:45;;;;;;;26.27;8.35;;;;;;;8.45;100.00;98028.34;4999832;28;20484;-70
2024/01/25 11:09:21;;;;;;;21.92;5.55;;;;;;;8.52;100.00;98027.88;4995834;28;20046;-72
2024/01/25 11:11:48;;;;;;;20.73;6.20;;;;;;;8.37;100.00;98027.19;4998783;28;20128;-72
2024/01/25 11:14:16;;;;;;;19.95;8.10;;;;;;;8.40;100.00;98031.97;4995788;28;20092;-72
2024/01/25 11:16:44;;;;;;;31.67;8.90;;;;;;;8.44;100.00;98031.38;5000083;28;20054;-72
2024/01/25 11:19:17;;;;;;;7.72;4.40;;;;;;;8.37;100.00;98037.28;4992573;28;20386;-72
2024/01/25 11:21:42;;;;;;;12.20;3.92;;;;;;;8.35;100.00;98034.88;5000490;28;20491;-72